Airfield :
LOGIN :

Register | Disclaimer

   EN    FR    IT 

 










Legend :    VFR   Marginal VFR   IFR   Intensive IFR   Very Intensive IFR
Visi :
Ceiling :
>= 8 km
>= 3000ft
5 to 8 km
1000 to 3000 ft
1500m to 5 km
500 to 1000 ft
800 to 1500m
200 to 500 ft
< 800m
< 200 ft
Symbols :   Thunderstorms  Fog  Heavy snow  Heavy precipitations  Wind > 20 kt
SIGMETs :     Misc.  Thunderstorms  Icing  Turbulence  Mountain Waves  Volcanic Ashes







- Airport Elevation : 16 ft
- IATA code : SDR


LEXJ - Santander Cantabria

CURRENT METAR :
  • 170900Z 25008KT 190V290 CAVOK 18/11 Q1015

EXPIRED METARs :
  • 170830Z 21003KT 150V300 CAVOK 18/10 Q1015
  • 170800Z 19009KT 160V230 CAVOK 17/10 Q1015
  • 170730Z 19009KT 160V220 CAVOK 17/10 Q1015
  • 170700Z 20009KT 170V230 CAVOK 17/10 Q1015
  • 170630Z 17007KT CAVOK 16/10 Q1015

TAF TAF LEXJ
Valid from the 17 at 09:00 until the 18 at 09:00 UTC


170800Z 1709/1809 18009KT CAVOK TX22/1714Z TN10/1806Z
PROB30
TEMPO 1712/1718 09010KT
PROB30
TEMPO 1721/1807 3000 BR
No reported NOTAMs for that airfield.



MET'MAP, your aeronautical weather chart ! - Copyright ORBIFLY December 2007 - Disclaimer

ORBIFLY MET'MAP TEAM :

Programming & Development : Alexandra Zaïnal
Concept & Development : Baudouin d'Aumeries
Co-Development & Prog : Marc-Olivier Méhu
Technical & hardware support : Manuel Goepfert

Contact : metmap@orbifly.com




SOURCES & CREDITS :

   NOAA